Horseneck Beach, Massachusetts
Current Conditions -  °F | °C
As of 4:53 AM on Friday 24 Oct 2014 (Local Time) from KEWB Reporting Station
Overcast Overcast  
Wind Chill: 50°   Ceiling: 1200
Heat Index: 50°   Visibility: 10mi
Dew Point: 48°   Wind: 6mph
Humidity: 93%   Direction: 350°N
Pressure: 29.63"   Gusts: NA
Location:  41.6022°N, 71.0828°W
Report Text: KEWB 240853Z 35005KT 10SM OVC012 10/09 A2963 RMK AO2 SLP033 60001 T01000089 53007 $
Loading
Personal Weather Stations






























Interactive Weather Map
Tropical Storm Tracking
New forecast layout! Learn more

10-Day Weather Forecast

Advertisements
Track Severe Weather on mobile